Time;durP1;ratioP1;P1;durP2;ratioP2;P2;SDS_P1;SDS_P2;PMS_P1;PMS_P2;Temp;Humidity;BMP_temperature;BMP_pressure;BME280_temperature;BME280_humidity;BME280_pressure;Samples;Min_cycle;Max_cycle;Signal;HPM_P1;HPM_P2
2022/01/07 00:02:21;;;;;;;6.10;4.60;;;4.80;99.90;;;;;;5050043;28;20487;-69
2022/01/07 00:04:50;;;;;;;5.43;4.13;;;5.00;99.90;;;;;;5049967;28;20811;-69
2022/01/07 00:07:17;;;;;;;4.97;3.47;;;5.10;99.90;;;;;;5049779;28;20450;-69
2022/01/07 00:09:44;;;;;;;5.67;3.63;;;4.90;99.90;;;;;;5049398;28;20846;-69
2022/01/07 00:12:12;;;;;;;5.73;3.97;;;4.90;99.90;;;;;;5049781;28;20457;-69
2022/01/07 00:14:39;;;;;;;6.17;3.97;;;4.90;99.90;;;;;;5049754;28;20774;-69
2022/01/07 00:17:06;;;;;;;6.23;3.90;;;4.80;99.90;;;;;;5049731;28;20929;-70
2022/01/07 00:19:33;;;;;;;6.10;4.03;;;4.70;99.90;;;;;;5049670;28;20995;-70
2022/01/07 00:22:02;;;;;;;6.93;4.10;;;4.80;99.90;;;;;;5049393;28;20900;-70
2022/01/07 00:24:29;;;;;;;6.60;4.13;;;4.80;99.90;;;;;;5048856;28;20491;-70
2022/01/07 00:26:56;;;;;;;7.00;4.13;;;4.80;99.90;;;;;;5049476;28;20461;-70
2022/01/07 00:29:23;;;;;;;5.93;4.40;;;4.70;99.90;;;;;;5049576;28;20473;-70
2022/01/07 00:31:50;;;;;;;6.33;4.20;;;4.80;99.90;;;;;;5049139;28;20463;-70
2022/01/07 00:34:17;;;;;;;6.03;4.20;;;4.90;99.90;;;;;;5049681;28;20471;-69
2022/01/07 00:36:44;;;;;;;5.80;3.77;;;4.90;99.90;;;;;;5049144;28;20822;-68
2022/01/07 00:39:12;;;;;;;6.50;4.20;;;4.90;99.90;;;;;;5049182;28;20478;-69
2022/01/07 00:41:39;;;;;;;6.13;3.53;;;4.90;99.90;;;;;;5049420;28;20488;-69
2022/01/07 00:44:06;;;;;;;6.80;4.53;;;4.80;99.90;;;;;;5049441;28;20454;-69
2022/01/07 00:46:33;;;;;;;6.33;3.87;;;4.80;99.90;;;;;;5049634;28;20622;-69
2022/01/07 00:49:00;;;;;;;6.30;4.13;;;4.80;99.90;;;;;;5048840;28;20464;-69
2022/01/07 00:51:27;;;;;;;5.93;3.80;;;4.80;99.90;;;;;;5049079;28;20500;-69
2022/01/07 00:53:55;;;;;;;7.07;4.00;;;4.90;99.90;;;;;;5048951;28;20485;-69
2022/01/07 00:56:23;;;;;;;6.00;3.70;;;4.90;99.90;;;;;;5049358;28;20460;-70
2022/01/07 00:58:50;;;;;;;6.00;4.07;;;4.80;99.90;;;;;;5049352;28;20531;-70
2022/01/07 01:01:17;;;;;;;6.40;3.70;;;4.80;99.90;;;;;;5049242;28;20802;-69
2022/01/07 01:03:44;;;;;;;5.20;3.53;;;4.70;99.90;;;;;;5056433;28;20506;-69
2022/01/07 01:06:11;;;;;;;6.07;3.77;;;4.60;99.90;;;;;;5060543;28;20463;-68
2022/01/07 01:08:38;;;;;;;6.30;4.03;;;4.50;99.90;;;;;;5050085;28;20478;-69
2022/01/07 01:11:05;;;;;;;6.30;4.43;;;4.50;99.90;;;;;;5049792;28;20453;-69
2022/01/07 01:13:34;;;;;;;9.53;4.80;;;4.50;99.90;;;;;;5049276;28;20444;-69
2022/01/07 01:16:01;;;;;;;8.90;4.53;;;4.60;99.90;;;;;;5049252;28;20453;-70
2022/01/07 01:18:28;;;;;;;6.97;4.33;;;4.60;99.90;;;;;;5048877;28;20472;-69
2022/01/07 01:20:56;;;;;;;6.37;4.23;;;4.60;99.90;;;;;;5048995;28;20871;-70
2022/01/07 01:23:23;;;;;;;7.30;5.03;;;4.50;99.90;;;;;;5049057;28;20517;-69
2022/01/07 01:25:50;;;;;;;7.10;4.13;;;4.50;99.90;;;;;;5049200;28;20852;-69
2022/01/07 01:28:17;;;;;;;7.33;4.70;;;4.40;99.90;;;;;;5049152;28;21283;-69
2022/01/07 01:30:45;;;;;;;5.63;4.07;;;4.30;99.90;;;;;;5049309;28;20871;-69
2022/01/07 01:33:13;;;;;;;6.37;3.90;;;4.30;99.90;;;;;;5048854;28;20447;-69
2022/01/07 01:35:40;;;;;;;6.50;4.27;;;4.20;99.90;;;;;;5051982;28;20579;-67
2022/01/07 01:38:08;;;;;;;8.17;4.93;;;4.30;99.90;;;;;;5052723;28;20471;-68
2022/01/07 01:40:35;;;;;;;8.30;5.30;;;4.20;99.90;;;;;;5052885;28;20517;-69
2022/01/07 01:43:02;;;;;;;7.37;4.60;;;4.30;99.90;;;;;;5052737;28;20489;-69
2022/01/07 01:45:30;;;;;;;6.30;3.80;;;4.30;99.90;;;;;;5052378;28;20943;-69
2022/01/07 01:47:58;;;;;;;7.30;4.63;;;4.30;99.90;;;;;;5052531;28;20464;-68
2022/01/07 01:50:26;;;;;;;5.63;4.20;;;4.30;99.90;;;;;;5052059;28;20463;-69
2022/01/07 01:52:56;;;;;;;5.83;4.23;;;4.40;99.90;;;;;;5052403;28;20487;-70
2022/01/07 01:55:25;;;;;;;7.00;4.87;;;4.40;99.90;;;;;;5052414;28;20456;-68
2022/01/07 01:57:52;;;;;;;5.70;4.10;;;4.40;99.90;;;;;;5051934;28;20794;-69
2022/01/07 02:00:20;;;;;;;5.47;3.80;;;4.30;99.90;;;;;;5052366;28;20446;-69
2022/01/07 02:02:47;;;;;;;6.03;4.13;;;4.40;99.90;;;;;;5051686;28;20482;-69
2022/01/07 02:05:16;;;;;;;7.50;4.60;;;4.40;99.90;;;;;;5051908;28;20596;-68
2022/01/07 02:07:43;;;;;;;6.23;4.27;;;4.50;99.90;;;;;;5052217;28;20461;-69
2022/01/07 02:10:14;;;;;;;5.97;4.10;;;4.60;99.90;;;;;;5052156;28;20515;-68
2022/01/07 02:12:42;;;;;;;6.87;4.33;;;4.60;99.90;;;;;;5051941;28;20989;-68
2022/01/07 02:15:11;;;;;;;7.13;4.23;;;4.50;99.90;;;;;;5052079;28;20507;-68
2022/01/07 02:17:41;;;;;;;6.47;4.30;;;4.40;99.90;;;;;;5052131;28;20453;-69
2022/01/07 02:20:11;;;;;;;6.90;3.93;;;4.30;99.90;;;;;;5052168;28;20460;-69
2022/01/07 02:22:38;;;;;;;6.53;4.67;;;4.30;99.90;;;;;;5052008;28;20485;-69
2022/01/07 02:25:06;;;;;;;6.70;4.07;;;4.20;99.90;;;;;;5051776;28;20450;-69
2022/01/07 02:27:37;;;;;;;6.10;4.03;;;4.30;99.90;;;;;;5051584;28;20464;-69
2022/01/07 02:30:06;;;;;;;6.97;4.13;;;4.20;99.90;;;;;;5051779;28;20467;-70
2022/01/07 02:32:33;;;;;;;8.30;4.90;;;4.30;99.90;;;;;;5051806;28;20455;-69
2022/01/07 02:35:00;;;;;;;6.57;4.20;;;4.40;99.90;;;;;;5051689;28;20511;-69
2022/01/07 02:37:29;;;;;;;6.93;4.30;;;4.30;99.90;;;;;;5051766;28;20502;-69
2022/01/07 02:39:56;;;;;;;6.57;4.07;;;4.40;99.90;;;;;;5051661;28;20475;-69
2022/01/07 02:42:25;;;;;;;5.60;3.90;;;4.50;99.90;;;;;;5051281;28;20571;-69
2022/01/07 02:44:52;;;;;;;6.53;3.97;;;4.50;99.90;;;;;;5051482;28;20502;-69
2022/01/07 02:47:21;;;;;;;6.67;4.30;;;4.40;99.90;;;;;;5050620;28;20453;-69
2022/01/07 02:49:48;;;;;;;7.17;4.10;;;4.20;99.90;;;;;;5051406;28;20543;-70
2022/01/07 02:52:15;;;;;;;6.23;4.30;;;4.20;99.90;;;;;;5051144;28;20456;-70
2022/01/07 02:54:44;;;;;;;6.93;4.60;;;4.20;99.90;;;;;;5050971;28;20492;-69
2022/01/07 02:57:11;;;;;;;6.10;4.13;;;4.40;99.90;;;;;;5051364;28;20454;-69
2022/01/07 02:59:38;;;;;;;6.80;3.97;;;4.40;99.90;;;;;;5051293;28;20561;-69
2022/01/07 03:02:06;;;;;;;6.57;4.27;;;4.20;99.90;;;;;;5050982;28;20511;-70
2022/01/07 03:04:33;;;;;;;5.93;3.73;;;4.30;99.90;;;;;;5051235;28;20461;-70
2022/01/07 03:07:00;;;;;;;7.80;5.07;;;4.40;99.90;;;;;;5050752;28;20983;-69
2022/01/07 03:09:28;;;;;;;6.77;4.00;;;4.50;99.90;;;;;;5051056;28;20479;-69
2022/01/07 03:11:57;;;;;;;5.60;3.73;;;4.50;99.90;;;;;;5050968;28;20454;-69
2022/01/07 03:14:25;;;;;;;6.80;4.07;;;4.50;99.90;;;;;;5051052;28;20468;-70
2022/01/07 03:16:52;;;;;;;6.00;3.80;;;4.50;99.90;;;;;;5051063;28;20473;-69
2022/01/07 03:19:19;;;;;;;6.77;4.47;;;4.50;99.90;;;;;;5050841;28;20482;-69
2022/01/07 03:21:46;;;;;;;8.27;4.47;;;4.50;99.90;;;;;;5050383;28;20861;-69
2022/01/07 03:24:13;;;;;;;6.50;4.43;;;4.70;99.90;;;;;;5050527;28;20551;-69
2022/01/07 03:26:40;;;;;;;7.87;4.40;;;4.80;99.90;;;;;;5050743;28;20463;-69
2022/01/07 03:29:09;;;;;;;6.80;3.87;;;4.80;99.90;;;;;;5050707;28;20473;-69
2022/01/07 03:31:36;;;;;;;6.30;4.13;;;4.80;99.90;;;;;;5050794;28;20491;-69
2022/01/07 03:34:03;;;;;;;6.17;4.03;;;4.80;99.90;;;;;;5050582;28;20491;-69
2022/01/07 03:36:30;;;;;;;6.30;4.07;;;4.80;99.90;;;;;;5050312;28;20446;-69
2022/01/07 03:39:00;;;;;;;6.53;4.17;;;4.90;99.90;;;;;;5050495;28;20915;-69
2022/01/07 03:41:28;;;;;;;6.10;4.00;;;4.90;99.90;;;;;;5050548;28;20460;-69
2022/01/07 03:43:55;;;;;;;7.40;4.77;;;4.80;99.90;;;;;;5050300;28;20494;-70
2022/01/07 03:46:23;;;;;;;6.03;3.67;;;4.60;99.90;;;;;;5050283;28;20459;-70
2022/01/07 03:48:50;;;;;;;9.73;4.33;;;4.50;99.90;;;;;;5049753;28;20470;-70
2022/01/07 03:51:18;;;;;;;8.80;4.27;;;4.40;99.90;;;;;;5050341;28;20454;-70
2022/01/07 03:53:45;;;;;;;8.93;5.30;;;4.40;99.90;;;;;;5051829;28;20504;-69
2022/01/07 03:56:17;;;;;;;7.23;4.13;;;4.60;99.90;;;;;;5060415;28;20457;-68
2022/01/07 03:58:45;;;;;;;5.80;4.30;;;4.60;99.90;;;;;;5052706;28;20476;-69
2022/01/07 04:01:12;;;;;;;6.47;4.10;;;4.60;99.90;;;;;;5050014;28;20457;-68
2022/01/07 04:03:40;;;;;;;7.80;4.73;;;4.50;99.90;;;;;;5050103;28;20486;-68
2022/01/07 04:06:07;;;;;;;7.43;4.40;;;4.50;99.90;;;;;;5049860;28;20466;-68
2022/01/07 04:08:34;;;;;;;7.00;4.60;;;4.50;99.90;;;;;;5049904;28;20476;-69
2022/01/07 04:11:02;;;;;;;8.33;5.20;;;4.60;99.90;;;;;;5049819;28;20484;-68
2022/01/07 04:13:29;;;;;;;7.00;4.53;;;4.70;99.90;;;;;;5049654;28;20445;-68
2022/01/07 04:15:56;;;;;;;7.70;5.13;;;4.60;99.90;;;;;;5049886;28;20516;-68
2022/01/07 04:18:23;;;;;;;8.97;5.13;;;4.70;99.90;;;;;;5049397;28;21020;-68
2022/01/07 04:20:51;;;;;;;8.00;5.33;;;4.70;99.90;;;;;;5049740;28;20897;-68
2022/01/07 04:23:19;;;;;;;10.50;5.97;;;4.70;99.90;;;;;;5049630;28;20491;-68
2022/01/07 04:25:46;;;;;;;8.23;4.90;;;4.80;99.90;;;;;;5049211;28;21002;-69
2022/01/07 04:28:13;;;;;;;8.00;5.07;;;5.00;99.90;;;;;;5049124;28;20471;-69
2022/01/07 04:30:44;;;;;;;8.77;5.10;;;5.20;99.90;;;;;;5049355;28;20515;-68
2022/01/07 04:33:14;;;;;;;8.80;5.30;;;5.10;99.90;;;;;;5049617;28;20971;-68
2022/01/07 04:35:42;;;;;;;7.53;5.00;;;5.10;99.90;;;;;;5049156;28;20992;-69
2022/01/07 04:38:11;;;;;;;8.00;5.10;;;5.10;99.90;;;;;;5049501;28;20604;-69
2022/01/07 04:40:38;;;;;;;7.17;4.70;;;5.20;99.90;;;;;;5049388;28;20459;-69
2022/01/07 04:43:06;;;;;;;8.00;5.20;;;5.20;99.90;;;;;;5049454;28;20492;-68
2022/01/07 04:45:35;;;;;;;7.87;4.40;;;5.20;99.90;;;;;;5049438;28;20544;-69
2022/01/07 04:48:02;;;;;;;6.20;4.30;;;5.20;99.90;;;;;;5049290;28;20507;-69
2022/01/07 04:50:29;;;;;;;10.77;5.20;;;5.10;99.90;;;;;;5049522;28;20532;-69
2022/01/07 04:52:57;;;;;;;8.70;5.37;;;5.20;99.90;;;;;;5049248;28;20582;-69
2022/01/07 04:55:29;;;;;;;8.30;5.03;;;5.10;99.90;;;;;;5049568;28;20487;-69
2022/01/07 04:57:57;;;;;;;9.87;5.50;;;5.10;99.90;;;;;;5049086;28;20661;-69
2022/01/07 05:00:25;;;;;;;7.67;5.80;;;5.10;99.90;;;;;;5049285;28;20453;-69
2022/01/07 05:02:52;;;;;;;11.87;6.30;;;5.10;99.90;;;;;;5049280;28;20482;-69
2022/01/07 05:05:20;;;;;;;8.33;5.63;;;5.10;99.90;;;;;;5049327;28;20459;-70
2022/01/07 05:07:47;;;;;;;8.67;5.30;;;5.00;99.90;;;;;;5049307;28;20448;-69
2022/01/07 05:10:15;;;;;;;8.20;5.60;;;5.00;99.90;;;;;;5051701;28;21312;-69
2022/01/07 05:12:44;;;;;;;6.83;5.17;;;5.00;99.90;;;;;;5052970;28;20446;-70
2022/01/07 05:15:12;;;;;;;7.80;5.50;;;5.00;99.90;;;;;;5052659;28;20445;-68
2022/01/07 05:17:39;;;;;;;8.90;5.93;;;4.90;99.90;;;;;;5053071;28;20916;-69
2022/01/07 05:20:07;;;;;;;8.30;5.90;;;4.90;99.90;;;;;;5053079;28;20524;-69
2022/01/07 05:22:34;;;;;;;10.10;6.00;;;4.90;99.90;;;;;;5052858;28;20958;-69
2022/01/07 05:25:01;;;;;;;10.37;6.50;;;4.80;99.90;;;;;;5052712;28;20462;-69
2022/01/07 05:27:28;;;;;;;8.90;6.37;;;4.70;99.90;;;;;;5053034;28;20456;-69
2022/01/07 05:29:56;;;;;;;9.53;6.50;;;4.70;99.90;;;;;;5052748;28;20476;-69
2022/01/07 05:32:25;;;;;;;9.87;5.97;;;4.80;99.90;;;;;;5052764;28;20457;-68
2022/01/07 05:34:52;;;;;;;9.90;6.30;;;4.90;99.90;;;;;;5052934;28;20808;-71
2022/01/07 05:37:19;;;;;;;10.30;6.20;;;5.00;99.90;;;;;;5052546;28;20463;-69
2022/01/07 05:39:46;;;;;;;8.60;5.20;;;4.80;99.90;;;;;;5052505;28;20500;-69
2022/01/07 05:42:13;;;;;;;8.97;5.80;;;4.60;99.90;;;;;;5053036;28;20455;-69
2022/01/07 05:44:40;;;;;;;9.13;5.90;;;4.60;99.90;;;;;;5052655;28;20494;-70
2022/01/07 05:47:09;;;;;;;9.63;5.70;;;4.50;99.90;;;;;;5052799;28;20457;-69
2022/01/07 05:49:36;;;;;;;10.47;6.27;;;4.20;99.90;;;;;;5052563;28;20469;-69
2022/01/07 05:52:03;;;;;;;8.47;6.07;;;4.20;99.90;;;;;;5052370;28;20461;-70
2022/01/07 05:54:30;;;;;;;8.70;5.43;;;4.10;99.90;;;;;;5052256;28;20478;-72
2022/01/07 05:56:57;;;;;;;7.57;5.43;;;4.10;99.90;;;;;;5052485;28;20520;-73
2022/01/07 05:59:24;;;;;;;8.50;6.40;;;4.20;99.90;;;;;;5052445;28;20474;-71
2022/01/07 06:01:51;;;;;;;9.23;6.27;;;4.30;99.90;;;;;;5052427;28;20457;-71
2022/01/07 06:04:20;;;;;;;8.70;5.17;;;4.40;99.90;;;;;;5052103;28;20488;-72
2022/01/07 06:06:47;;;;;;;9.60;5.50;;;4.40;99.90;;;;;;5052287;28;20459;-71
2022/01/07 06:09:14;;;;;;;6.50;5.30;;;4.40;99.90;;;;;;5052161;28;20476;-70
2022/01/07 06:11:41;;;;;;;9.87;5.73;;;4.50;99.90;;;;;;5051932;28;20459;-69
2022/01/07 06:14:08;;;;;;;9.50;6.63;;;4.40;99.90;;;;;;5052084;28;20457;-69
2022/01/07 06:16:36;;;;;;;9.90;6.37;;;4.40;99.90;;;;;;5051838;28;20525;-72
2022/01/07 06:19:03;;;;;;;10.37;7.00;;;4.40;99.90;;;;;;5051941;28;20541;-76
2022/01/07 06:21:32;;;;;;;9.07;6.43;;;4.50;99.90;;;;;;5050581;28;20460;-71
2022/01/07 06:23:59;;;;;;;9.50;6.20;;;4.40;99.90;;;;;;5052400;28;20496;-72
2022/01/07 06:26:29;;;;;;;10.77;7.10;;;4.60;99.90;;;;;;5053503;28;20458;-73
2022/01/07 06:28:56;;;;;;;11.83;7.30;;;4.70;99.90;;;;;;5052529;28;21540;-69
2022/01/07 06:31:24;;;;;;;11.67;6.13;;;4.80;99.90;;;;;;5051528;28;20519;-68
2022/01/07 06:33:51;;;;;;;11.00;7.57;;;4.90;99.90;;;;;;5051674;28;20884;-68
2022/01/07 06:36:18;;;;;;;11.13;7.80;;;4.90;99.90;;;;;;5051756;28;20440;-68
2022/01/07 06:38:46;;;;;;;9.00;6.37;;;4.80;99.90;;;;;;5051780;28;20473;-68
2022/01/07 06:41:13;;;;;;;10.10;6.53;;;4.60;99.90;;;;;;5051570;28;20459;-69
2022/01/07 06:43:41;;;;;;;13.03;7.90;;;4.80;99.90;;;;;;5051323;28;20537;-71
2022/01/07 06:46:08;;;;;;;10.67;7.53;;;4.80;99.90;;;;;;5063377;28;20476;-70
2022/01/07 06:48:35;;;;;;;11.60;7.07;;;4.80;99.90;;;;;;5060849;28;20822;-71
2022/01/07 06:51:02;;;;;;;10.83;7.03;;;4.80;99.90;;;;;;5051496;28;20456;-71
2022/01/07 06:53:30;;;;;;;13.60;7.67;;;4.80;99.90;;;;;;5051098;28;20894;-72
2022/01/07 06:55:59;;;;;;;10.07;7.43;;;4.80;99.90;;;;;;5051494;28;20461;-71
2022/01/07 06:58:27;;;;;;;15.47;8.57;;;4.80;99.90;;;;;;5051127;28;20479;-71
2022/01/07 07:00:54;;;;;;;11.00;8.17;;;4.90;99.90;;;;;;5051132;28;20484;-72
2022/01/07 07:03:22;;;;;;;11.40;8.60;;;4.90;99.90;;;;;;5050733;28;20460;-72
2022/01/07 07:05:49;;;;;;;12.77;8.03;;;5.00;99.90;;;;;;5051260;28;20451;-72
2022/01/07 07:08:16;;;;;;;11.23;7.73;;;5.10;99.90;;;;;;5050613;28;20481;-72
2022/01/07 07:10:43;;;;;;;11.97;7.97;;;5.20;99.90;;;;;;5050696;28;20452;-72
2022/01/07 07:13:12;;;;;;;14.50;8.80;;;5.30;99.90;;;;;;5050765;28;20566;-72
2022/01/07 07:15:39;;;;;;;12.63;9.50;;;5.20;99.90;;;;;;5050818;28;20448;-72
2022/01/07 07:18:06;;;;;;;14.97;8.33;;;5.00;99.90;;;;;;5050874;28;20484;-71
2022/01/07 07:20:33;;;;;;;12.10;8.00;;;5.00;99.90;;;;;;5050910;28;20545;-71
2022/01/07 07:23:00;;;;;;;11.00;7.77;;;5.00;99.90;;;;;;5050706;28;20468;-71
2022/01/07 07:25:27;;;;;;;13.37;9.57;;;5.10;99.90;;;;;;5050411;28;20500;-71
2022/01/07 07:27:54;;;;;;;12.90;8.90;;;5.20;99.90;;;;;;5050589;28;20484;-71
2022/01/07 07:30:22;;;;;;;13.20;8.17;;;5.30;99.90;;;;;;5050680;28;20875;-72
2022/01/07 07:32:53;;;;;;;13.23;9.37;;;5.30;99.90;;;;;;5050158;28;20495;-72
2022/01/07 07:38:04;;;;;;;14.67;9.43;;;5.40;99.90;;;;;;5050366;28;20470;-72
2022/01/07 07:40:31;;;;;;;13.03;8.60;;;5.50;99.90;;;;;;5050202;28;20498;-73
2022/01/07 07:42:58;;;;;;;14.60;9.43;;;5.50;99.90;;;;;;5050152;28;20938;-71
2022/01/07 07:45:27;;;;;;;16.80;10.63;;;5.50;99.90;;;;;;5050219;28;21047;-72
2022/01/07 07:47:54;;;;;;;12.37;9.07;;;5.60;99.90;;;;;;5050106;28;20537;-72
2022/01/07 07:50:21;;;;;;;13.13;9.73;;;5.70;99.90;;;;;;5049886;28;20868;-73
2022/01/07 07:52:48;;;;;;;19.50;10.10;;;5.80;99.90;;;;;;5049939;28;20485;-72
2022/01/07 07:55:15;;;;;;;12.10;8.93;;;6.00;99.90;;;;;;5049721;28;20503;-72
2022/01/07 07:57:42;;;;;;;13.93;10.00;;;6.00;99.90;;;;;;5050127;28;20460;-72
2022/01/07 08:00:11;;;;;;;13.87;9.97;;;5.90;99.90;;;;;;5050280;28;20503;-72
2022/01/07 08:02:39;;;;;;;18.33;9.80;;;5.70;99.90;;;;;;5050007;28;20460;-72
2022/01/07 08:05:07;;;;;;;16.77;11.13;;;5.70;99.90;;;;;;5049884;28;20564;-72
2022/01/07 08:07:34;;;;;;;15.13;10.43;;;5.80;99.90;;;;;;5048356;28;20468;-72
2022/01/07 08:10:03;;;;;;;12.97;10.50;;;5.90;99.90;;;;;;5049915;28;20454;-72
2022/01/07 08:12:51;;;;;;;14.73;11.27;;;6.10;99.90;;;;;;5049971;28;20465;-72
2022/01/07 08:18:03;;;;;;;14.13;9.47;;;6.30;99.90;;;;;;5049570;28;20942;-72
2022/01/07 08:20:30;;;;;;;12.87;8.87;;;6.30;99.90;;;;;;5049818;28;20455;-71
2022/01/07 08:22:57;;;;;;;13.70;9.50;;;6.00;99.90;;;;;;5049814;28;20883;-71
2022/01/07 08:25:24;;;;;;;11.43;8.30;;;5.90;99.90;;;;;;5049528;28;20906;-72
2022/01/07 08:27:51;;;;;;;15.67;9.10;;;6.10;99.90;;;;;;5049187;28;20851;-71
2022/01/07 08:30:24;;;;;;;12.63;8.47;;;6.20;99.90;;;;;;5049886;28;20465;-72
2022/01/07 08:35:38;;;;;;;12.00;8.93;;;6.20;99.90;;;;;;5049703;28;20642;-71
2022/01/07 08:38:05;;;;;;;11.00;8.97;;;6.40;99.90;;;;;;5048785;28;20477;-70
2022/01/07 08:40:34;;;;;;;14.97;9.40;;;6.50;99.90;;;;;;5048989;28;20935;-72
2022/01/07 08:43:01;;;;;;;16.40;12.00;;;6.50;99.90;;;;;;5049418;28;20606;-71
2022/01/07 08:45:28;;;;;;;13.60;10.83;;;6.70;99.90;;;;;;5048887;28;20481;-73
2022/01/07 08:47:55;;;;;;;14.90;10.77;;;6.90;99.90;;;;;;5048905;28;20487;-72
2022/01/07 08:50:22;;;;;;;14.57;10.53;;;7.00;99.90;;;;;;5049454;28;20523;-70
2022/01/07 08:52:52;;;;;;;16.40;10.03;;;7.20;99.90;;;;;;5049234;28;20553;-71
2022/01/07 08:55:19;;;;;;;16.57;10.20;;;7.20;99.90;;;;;;5049348;28;20477;-72
2022/01/07 08:57:47;;;;;;;14.90;10.37;;;7.20;99.90;;;;;;5049085;28;20455;-72
2022/01/07 09:00:15;;;;;;;11.30;8.90;;;7.30;99.90;;;;;;5048963;28;20463;-71
2022/01/07 09:02:42;;;;;;;13.20;9.07;;;7.50;99.90;;;;;;5049193;28;20457;-73
2022/01/07 09:05:10;;;;;;;15.80;10.20;;;7.40;99.90;;;;;;5048985;28;20570;-71
2022/01/07 09:07:37;;;;;;;14.80;9.90;;;7.30;99.90;;;;;;5048690;28;21136;-71
2022/01/07 09:10:06;;;;;;;14.70;9.70;;;7.20;99.90;;;;;;5049112;28;20836;-71
2022/01/07 09:12:33;;;;;;;11.10;8.37;;;7.20;99.90;;;;;;5049001;28;20516;-72
2022/01/07 09:15:00;;;;;;;11.73;8.20;;;7.20;99.90;;;;;;5049314;28;20451;-71
2022/01/07 09:17:30;;;;;;;15.53;9.33;;;7.00;99.90;;;;;;5048661;28;20462;-72
2022/01/07 09:19:57;;;;;;;13.73;9.37;;;7.00;99.90;;;;;;5048646;28;20482;-72
2022/01/07 09:22:24;;;;;;;13.10;9.30;;;6.90;99.90;;;;;;5048839;28;20450;-72
2022/01/07 09:24:51;;;;;;;17.27;10.37;;;6.80;99.90;;;;;;5048709;28;20877;-73
2022/01/07 09:27:20;;;;;;;16.07;11.13;;;6.70;99.90;;;;;;5048971;28;20458;-72
2022/01/07 09:29:49;;;;;;;15.87;11.87;;;6.60;99.90;;;;;;5049055;28;21036;-72
2022/01/07 09:32:17;;;;;;;12.93;9.40;;;6.70;99.90;;;;;;5048608;28;20464;-73
2022/01/07 09:34:44;;;;;;;14.80;11.33;;;6.80;99.90;;;;;;5050539;28;20458;-71
2022/01/07 09:37:11;;;;;;;15.07;10.67;;;6.70;99.90;;;;;;5064467;28;20445;-72
2022/01/07 09:39:38;;;;;;;15.70;9.90;;;6.80;99.90;;;;;;5056918;28;20888;-72
2022/01/07 09:42:06;;;;;;;14.80;11.40;;;6.90;99.90;;;;;;5048983;28;20453;-73
2022/01/07 09:44:39;;;;;;;24.87;11.70;;;6.90;99.90;;;;;;5048752;28;20485;-73
2022/01/07 09:47:07;;;;;;;17.87;11.63;;;7.10;99.90;;;;;;5048664;28;20461;-73
2022/01/07 09:49:36;;;;;;;18.20;11.63;;;7.10;99.90;;;;;;5048462;28;21044;-73
2022/01/07 09:52:03;;;;;;;18.03;11.83;;;7.20;99.90;;;;;;5049013;28;20459;-73
2022/01/07 09:54:30;;;;;;;14.20;11.17;;;7.10;99.90;;;;;;5048627;28;20487;-70
2022/01/07 09:56:57;;;;;;;16.33;11.73;;;7.20;99.90;;;;;;5052090;28;20454;-72
2022/01/07 09:59:24;;;;;;;21.43;11.40;;;7.20;99.90;;;;;;5052190;28;20788;-73
2022/01/07 10:01:58;;;;;;;16.63;11.00;;;7.10;99.90;;;;;;5052231;28;20449;-72
2022/01/07 10:04:30;;;;;;;15.10;9.80;;;7.10;99.90;;;;;;5052046;28;20485;-71
2022/01/07 10:07:11;;;;;;;13.33;9.43;;;7.10;99.90;;;;;;5052161;28;20465;-71
2022/01/07 10:09:39;;;;;;;14.70;8.70;;;7.20;99.90;;;;;;5052123;28;20481;-72
2022/01/07 10:12:07;;;;;;;13.50;9.00;;;7.30;99.90;;;;;;5051852;28;20530;-70
2022/01/07 10:14:36;;;;;;;17.37;11.17;;;7.20;99.90;;;;;;5051791;28;20507;-72
2022/01/07 10:17:05;;;;;;;15.40;11.77;;;7.30;99.90;;;;;;5051732;28;20994;-72
2022/01/07 10:19:34;;;;;;;16.03;10.53;;;7.30;99.90;;;;;;5051833;28;20477;-72
2022/01/07 10:22:05;;;;;;;19.53;15.60;;;7.30;99.90;;;;;;5051837;28;20708;-72
2022/01/07 10:24:34;;;;;;;17.37;10.70;;;7.20;99.90;;;;;;5051635;28;20493;-71
2022/01/07 10:27:12;;;;;;;15.10;9.70;;;7.40;99.90;;;;;;5051507;28;20469;-71
2022/01/07 10:29:40;;;;;;;16.00;10.30;;;7.50;99.90;;;;;;5051388;28;20474;-71
2022/01/07 10:32:23;;;;;;;13.27;9.63;;;7.50;99.90;;;;;;5051661;28;20864;-71
2022/01/07 10:35:06;;;;;;;15.30;12.60;;;7.60;99.90;;;;;;5051818;28;20546;-72
2022/01/07 10:37:33;;;;;;;15.37;11.40;;;7.70;99.90;;;;;;5051465;28;20459;-72
2022/01/07 10:40:00;;;;;;;16.10;9.33;;;8.00;99.90;;;;;;5051644;28;20517;-72
2022/01/07 10:42:28;;;;;;;14.50;9.77;;;8.10;99.90;;;;;;5051468;28;20529;-72
2022/01/07 10:45:00;;;;;;;13.33;9.93;;;8.30;99.90;;;;;;5051337;28;20932;-72
2022/01/07 10:47:29;;;;;;;15.47;9.40;;;8.50;99.90;;;;;;5050907;28;20471;-72
2022/01/07 10:50:15;;;;;;;14.17;9.30;;;8.60;99.90;;;;;;5050965;28;20479;-73
2022/01/07 10:52:43;;;;;;;13.30;9.10;;;8.70;99.90;;;;;;5051034;28;20487;-73
2022/01/07 10:55:13;;;;;;;15.10;9.73;;;8.70;99.90;;;;;;5051065;28;20576;-73
2022/01/07 10:57:43;;;;;;;14.00;9.80;;;8.80;99.90;;;;;;5051250;28;20510;-72
2022/01/07 11:00:13;;;;;;;14.97;10.07;;;8.80;99.90;;;;;;5050863;28;20464;-72
2022/01/07 11:02:41;;;;;;;13.43;10.20;;;8.80;99.90;;;;;;5051231;28;20487;-72
2022/01/07 11:05:09;;;;;;;15.57;10.60;;;8.80;99.90;;;;;;5050896;28;20504;-74
2022/01/07 11:07:37;;;;;;;13.80;9.20;;;8.90;99.90;;;;;;5050182;28;20456;-73
2022/01/07 11:10:06;;;;;;;14.07;10.13;;;8.90;99.90;;;;;;5051241;28;20486;-74
2022/01/07 11:12:33;;;;;;;14.83;10.50;;;8.90;99.90;;;;;;5051165;28;20445;-72
2022/01/07 11:15:02;;;;;;;14.93;10.03;;;9.10;99.90;;;;;;5050936;28;20453;-75
2022/01/07 11:17:31;;;;;;;14.60;9.60;;;9.30;99.90;;;;;;5050956;28;20486;-76
2022/01/07 11:20:03;;;;;;;14.83;9.53;;;9.40;99.90;;;;;;5050697;28;20572;-74
2022/01/07 11:22:30;;;;;;;16.57;9.70;;;9.50;99.90;;;;;;5050789;28;21004;-74
2022/01/07 11:25:10;;;;;;;19.27;10.23;;;9.50;99.90;;;;;;5050466;28;20876;-73
2022/01/07 11:27:51;;;;;;;15.00;9.03;;;9.60;99.90;;;;;;5049836;28;20553;-73
2022/01/07 11:30:22;;;;;;;13.97;10.13;;;9.70;99.90;;;;;;5050548;28;20460;-72
2022/01/07 11:32:49;;;;;;;13.63;9.27;;;9.50;99.90;;;;;;5050606;28;20531;-74
2022/01/07 11:35:49;;;;;;;15.17;8.70;;;9.40;99.90;;;;;;5050412;28;20458;-74
2022/01/07 11:38:42;;;;;;;13.70;9.60;;;9.20;99.90;;;;;;5050128;28;20981;-73
2022/01/07 11:41:15;;;;;;;14.03;8.50;;;9.30;99.90;;;;;;5050402;28;20556;-73
2022/01/07 11:43:45;;;;;;;15.37;9.40;;;9.40;99.90;;;;;;5050403;28;20461;-72
2022/01/07 11:46:30;;;;;;;12.03;7.50;;;9.40;99.90;;;;;;5050103;28;20941;-72
2022/01/07 11:48:59;;;;;;;11.37;8.30;;;9.60;99.90;;;;;;5049908;28;20525;-72
2022/01/07 11:51:37;;;;;;;12.13;8.63;;;9.50;99.90;;;;;;5050157;28;20493;-75
2022/01/07 11:54:13;;;;;;;13.70;8.87;;;9.40;99.90;;;;;;5049635;28;20488;-73
2022/01/07 11:56:41;;;;;;;13.40;8.37;;;9.40;99.90;;;;;;5050301;28;21063;-73
2022/01/07 11:59:23;;;;;;;15.63;9.00;;;9.10;99.90;;;;;;5049835;28;20486;-72
2022/01/07 12:02:03;;;;;;;13.17;9.67;;;8.90;99.90;;;;;;5049953;28;20461;-75
2022/01/07 12:04:31;;;;;;;16.30;8.57;;;9.10;99.90;;;;;;5050121;28;20451;-74
2022/01/07 12:07:02;;;;;;;14.90;9.07;;;9.20;99.90;;;;;;5049917;28;20830;-73
2022/01/07 12:09:38;;;;;;;12.50;8.33;;;9.10;99.90;;;;;;5049628;28;20475;-76
2022/01/07 12:12:11;;;;;;;13.10;8.30;;;9.10;99.90;;;;;;5050015;28;21266;-77
2022/01/07 12:14:41;;;;;;;10.87;7.63;;;9.30;99.90;;;;;;5049998;28;20485;-76
2022/01/07 12:17:13;;;;;;;10.80;7.40;;;9.30;99.90;;;;;;5050089;28;20825;-77
2022/01/07 12:20:17;;;;;;;12.93;8.77;;;9.50;99.90;;;;;;5049406;28;20484;-77
2022/01/07 12:22:54;;;;;;;13.07;7.97;;;9.60;99.90;;;;;;5049732;28;20456;-75
2022/01/07 12:25:23;;;;;;;13.70;9.30;;;9.70;99.90;;;;;;5049715;28;20504;-75
2022/01/07 12:27:59;;;;;;;13.83;8.77;;;9.80;99.90;;;;;;5049410;28;20548;-79
2022/01/07 12:30:26;;;;;;;15.10;9.10;;;9.80;99.90;;;;;;5049753;28;20491;-74
2022/01/07 12:32:56;;;;;;;12.63;8.87;;;9.70;99.90;;;;;;5049611;28;20532;-76
2022/01/07 12:35:29;;;;;;;14.90;8.10;;;9.60;99.90;;;;;;5049708;28;20456;-75
2022/01/07 12:37:57;;;;;;;19.13;8.77;;;9.70;99.90;;;;;;5049627;28;20535;-75
2022/01/07 12:40:24;;;;;;;14.47;7.87;;;9.70;99.70;;;;;;5049153;28;20514;-77
2022/01/07 12:42:51;;;;;;;12.40;8.30;;;9.80;99.90;;;;;;5049353;28;20918;-76
2022/01/07 12:45:22;;;;;;;11.97;8.33;;;9.80;99.90;;;;;;5049264;28;20547;-76
2022/01/07 12:47:49;;;;;;;14.20;9.13;;;9.80;99.90;;;;;;5049656;28;20462;-77
2022/01/07 12:50:16;;;;;;;15.57;9.70;;;9.80;99.90;;;;;;5049412;28;20455;-73
2022/01/07 12:52:45;;;;;;;23.03;10.20;;;10.00;99.70;;;;;;5049134;28;20493;-75
2022/01/07 12:55:18;;;;;;;13.13;9.10;;;10.00;99.90;;;;;;5047815;28;20558;-75
2022/01/07 12:57:47;;;;;;;14.60;7.50;;;10.00;99.80;;;;;;5049267;28;20489;-76
2022/01/07 13:00:18;;;;;;;12.80;9.10;;;10.10;98.70;;;;;;5049094;28;20989;-76
2022/01/07 13:02:46;;;;;;;12.17;8.90;;;10.00;98.80;;;;;;5049233;28;20555;-75
2022/01/07 13:05:22;;;;;;;15.33;9.50;;;10.00;98.20;;;;;;5048887;28;20469;-73
2022/01/07 13:07:50;;;;;;;13.30;9.07;;;10.10;98.00;;;;;;5049042;28;20449;-72